sensor_id;sensor_type;location;lat;lon;timestamp;temperature;humidity
37342;DHT22;58643;49.052;8.518;2023-08-20T10:46:49;37.30;91.60
37342;DHT22;58643;49.052;8.518;2023-08-20T10:49:16;38.90;89.90
37342;DHT22;58643;49.052;8.518;2023-08-20T10:51:42;39.50;86.60
37342;DHT22;58643;49.052;8.518;2023-08-20T10:54:09;39.50;85.50
37342;DHT22;58643;49.052;8.518;2023-08-20T10:56:45;39.90;86.00
37342;DHT22;58643;49.052;8.518;2023-08-20T11:01:50;40.00;83.40
37342;DHT22;58643;49.052;8.518;2023-08-20T11:04:17;40.50;83.10
37342;DHT22;58643;49.052;8.518;2023-08-20T11:06:44;39.70;82.50
37342;DHT22;58643;49.052;8.518;2023-08-20T11:09:10;40.10;82.70
37342;DHT22;58643;49.052;8.518;2023-08-20T11:11:42;40.40;78.30
37342;DHT22;58643;49.052;8.518;2023-08-20T11:14:12;41.20;78.00
37342;DHT22;58643;49.052;8.518;2023-08-20T11:16:42;40.20;79.80
37342;DHT22;58643;49.052;8.518;2023-08-20T11:19:11;40.60;79.60
37342;DHT22;58643;49.052;8.518;2023-08-20T11:21:41;40.90;78.90
37342;DHT22;58643;49.052;8.518;2023-08-20T11:24:07;39.30;78.60
37342;DHT22;58643;49.052;8.518;2023-08-20T11:26:38;39.20;79.90
37342;DHT22;58643;49.052;8.518;2023-08-20T11:29:11;38.90;81.40
37342;DHT22;58643;49.052;8.518;2023-08-20T11:31:38;39.30;79.20
37342;DHT22;58643;49.052;8.518;2023-08-20T11:34:04;39.80;78.50
37342;DHT22;58643;49.052;8.518;2023-08-20T11:36:30;40.60;76.00
37342;DHT22;58643;49.052;8.518;2023-08-20T11:38:56;39.90;78.30
37342;DHT22;58643;49.052;8.518;2023-08-20T11:41:23;38.60;78.80
37342;DHT22;58643;49.052;8.518;2023-08-20T11:43:50;39.30;78.30
37342;DHT22;58643;49.052;8.518;2023-08-20T11:46:18;39.80;77.80
37342;DHT22;58643;49.052;8.518;2023-08-20T11:51:36;39.70;76.00
37342;DHT22;58643;49.052;8.518;2023-08-20T11:54:12;40.20;77.50
37342;DHT22;58643;49.052;8.518;2023-08-20T11:56:46;40.60;75.70
37342;DHT22;58643;49.052;8.518;2023-08-20T11:59:13;41.40;73.50
37342;DHT22;58643;49.052;8.518;2023-08-20T12:01:39;41.00;73.30
37342;DHT22;58643;49.052;8.518;2023-08-20T12:04:06;41.00;74.80
37342;DHT22;58643;49.052;8.518;2023-08-20T12:06:34;41.90;74.00
37342;DHT22;58643;49.052;8.518;2023-08-20T12:09:00;42.10;73.30
37342;DHT22;58643;49.052;8.518;2023-08-20T12:11:27;42.10;72.50
37342;DHT22;58643;49.052;8.518;2023-08-20T12:13:53;41.30;72.00
37342;DHT22;58643;49.052;8.518;2023-08-20T12:16:22;40.80;73.40
37342;DHT22;58643;49.052;8.518;2023-08-20T12:18:48;39.60;75.30
37342;DHT22;58643;49.052;8.518;2023-08-20T12:21:14;37.70;78.00
37342;DHT22;58643;49.052;8.518;2023-08-20T12:23:40;37.00;79.10
37342;DHT22;58643;49.052;8.518;2023-08-20T12:26:05;37.80;78.40
37342;DHT22;58643;49.052;8.518;2023-08-20T12:28:31;36.90;80.00
37342;DHT22;58643;49.052;8.518;2023-08-20T12:30:57;37.80;77.50
37342;DHT22;58643;49.052;8.518;2023-08-20T12:33:22;39.20;76.20
37342;DHT22;58643;49.052;8.518;2023-08-20T12:35:48;39.90;75.00
37342;DHT22;58643;49.052;8.518;2023-08-20T12:38:15;40.50;74.30
37342;DHT22;58643;49.052;8.518;2023-08-20T12:40:40;39.90;74.10
37342;DHT22;58643;49.052;8.518;2023-08-20T12:43:06;39.10;73.80
37342;DHT22;58643;49.052;8.518;2023-08-20T12:45:31;39.80;74.90
37342;DHT22;58643;49.052;8.518;2023-08-20T12:47:57;40.40;74.00
37342;DHT22;58643;49.052;8.518;2023-08-20T12:50:22;39.70;73.70
37342;DHT22;58643;49.052;8.518;2023-08-20T12:52:51;38.60;74.20
37342;DHT22;58643;49.052;8.518;2023-08-20T12:55:16;37.10;76.70
37342;DHT22;58643;49.052;8.518;2023-08-20T12:57:58;36.50;78.00
37342;DHT22;58643;49.052;8.518;2023-08-20T13:00:25;36.40;78.40
37342;DHT22;58643;49.052;8.518;2023-08-20T13:02:52;37.20;77.40
37342;DHT22;58643;49.052;8.518;2023-08-20T13:05:18;36.60;76.80
37342;DHT22;58643;49.052;8.518;2023-08-20T13:07:44;36.80;77.30
37342;DHT22;58643;49.052;8.518;2023-08-20T13:10:10;37.60;74.60
37342;DHT22;58643;49.052;8.518;2023-08-20T13:12:36;37.80;75.30
37342;DHT22;58643;49.052;8.518;2023-08-20T13:15:03;37.00;76.20
37342;DHT22;58643;49.052;8.518;2023-08-20T13:17:29;35.60;78.10
37342;DHT22;58643;49.052;8.518;2023-08-20T13:19:55;35.80;78.90
37342;DHT22;58643;49.052;8.518;2023-08-20T13:22:21;37.20;77.50
37342;DHT22;58643;49.052;8.518;2023-08-20T13:24:47;38.10;76.60
37342;DHT22;58643;49.052;8.518;2023-08-20T13:27:13;39.00;74.60
37342;DHT22;58643;49.052;8.518;2023-08-20T13:29:40;39.30;74.10
37342;DHT22;58643;49.052;8.518;2023-08-20T13:32:06;39.50;72.50
37342;DHT22;58643;49.052;8.518;2023-08-20T13:34:31;40.30;73.30
37342;DHT22;58643;49.052;8.518;2023-08-20T13:36:57;40.60;70.40
37342;DHT22;58643;49.052;8.518;2023-08-20T13:39:23;40.50;69.90
37342;DHT22;58643;49.052;8.518;2023-08-20T13:41:49;41.60;69.90
37342;DHT22;58643;49.052;8.518;2023-08-20T13:44:15;41.80;68.70
37342;DHT22;58643;49.052;8.518;2023-08-20T13:46:41;42.10;65.60
37342;DHT22;58643;49.052;8.518;2023-08-20T13:49:07;42.70;64.60
37342;DHT22;58643;49.052;8.518;2023-08-20T13:51:32;43.00;62.90
37342;DHT22;58643;49.052;8.518;2023-08-20T13:53:58;43.40;64.90
37342;DHT22;58643;49.052;8.518;2023-08-20T13:56:24;45.00;62.60
37342;DHT22;58643;49.052;8.518;2023-08-20T13:58:51;44.20;61.70
37342;DHT22;58643;49.052;8.518;2023-08-20T14:01:17;42.90;62.90
37342;DHT22;58643;49.052;8.518;2023-08-20T14:03:43;44.60;61.40
37342;DHT22;58643;49.052;8.518;2023-08-20T14:06:08;45.40;59.20
37342;DHT22;58643;49.052;8.518;2023-08-20T14:08:34;45.60;60.20
37342;DHT22;58643;49.052;8.518;2023-08-20T14:11:00;45.30;59.70
37342;DHT22;58643;49.052;8.518;2023-08-20T14:13:25;43.90;59.50
37342;DHT22;58643;49.052;8.518;2023-08-20T14:15:51;43.80;60.30
37342;DHT22;58643;49.052;8.518;2023-08-20T14:18:16;43.80;60.50
37342;DHT22;58643;49.052;8.518;2023-08-20T14:20:42;44.50;60.80
37342;DHT22;58643;49.052;8.518;2023-08-20T14:23:07;44.80;60.50
37342;DHT22;58643;49.052;8.518;2023-08-20T14:25:34;44.30;59.30
37342;DHT22;58643;49.052;8.518;2023-08-20T14:28:00;44.40;58.40
37342;DHT22;58643;49.052;8.518;2023-08-20T14:30:25;43.30;58.60
37342;DHT22;58643;49.052;8.518;2023-08-20T14:32:52;42.80;59.70
37342;DHT22;58643;49.052;8.518;2023-08-20T14:35:19;42.90;60.70
37342;DHT22;58643;49.052;8.518;2023-08-20T14:37:45;43.10;59.40
37342;DHT22;58643;49.052;8.518;2023-08-20T14:40:11;43.90;59.40
37342;DHT22;58643;49.052;8.518;2023-08-20T14:42:36;44.40;58.90
37342;DHT22;58643;49.052;8.518;2023-08-20T14:45:02;44.90;58.10
37342;DHT22;58643;49.052;8.518;2023-08-20T14:47:29;45.10;58.00
37342;DHT22;58643;49.052;8.518;2023-08-20T14:49:55;45.50;57.80
37342;DHT22;58643;49.052;8.518;2023-08-20T14:52:20;45.20;57.60
37342;DHT22;58643;49.052;8.518;2023-08-20T14:54:46;44.50;58.60
37342;DHT22;58643;49.052;8.518;2023-08-20T14:57:12;43.60;59.00
37342;DHT22;58643;49.052;8.518;2023-08-20T14:59:38;43.90;59.00
37342;DHT22;58643;49.052;8.518;2023-08-20T15:02:03;44.30;59.00
37342;DHT22;58643;49.052;8.518;2023-08-20T15:04:29;44.70;58.30
37342;DHT22;58643;49.052;8.518;2023-08-20T15:06:54;43.70;57.80
37342;DHT22;58643;49.052;8.518;2023-08-20T15:09:20;44.20;58.50
37342;DHT22;58643;49.052;8.518;2023-08-20T15:11:46;44.50;58.30
37342;DHT22;58643;49.052;8.518;2023-08-20T15:14:11;43.60;58.60
37342;DHT22;58643;49.052;8.518;2023-08-20T15:16:37;43.50;58.70
37342;DHT22;58643;49.052;8.518;2023-08-20T15:19:03;43.10;58.50
37342;DHT22;58643;49.052;8.518;2023-08-20T15:21:28;42.80;59.00
37342;DHT22;58643;49.052;8.518;2023-08-20T15:23:54;43.60;59.40
37342;DHT22;58643;49.052;8.518;2023-08-20T15:26:19;42.40;59.30
37342;DHT22;58643;49.052;8.518;2023-08-20T15:28:45;42.60;59.00
37342;DHT22;58643;49.052;8.518;2023-08-20T15:31:10;41.50;58.80
37342;DHT22;58643;49.052;8.518;2023-08-20T15:33:36;41.30;59.80
37342;DHT22;58643;49.052;8.518;2023-08-20T15:36:02;41.20;60.70
37342;DHT22;58643;49.052;8.518;2023-08-20T15:38:28;41.40;60.40
37342;DHT22;58643;49.052;8.518;2023-08-20T15:40:54;42.50;59.80
37342;DHT22;58643;49.052;8.518;2023-08-20T15:43:20;42.80;59.20
37342;DHT22;58643;49.052;8.518;2023-08-20T15:45:47;43.40;58.30
37342;DHT22;58643;49.052;8.518;2023-08-20T15:48:12;42.90;58.00
37342;DHT22;58643;49.052;8.518;2023-08-20T15:50:38;42.80;58.60
37342;DHT22;58643;49.052;8.518;2023-08-20T15:55:36;42.90;57.30
37342;DHT22;58643;49.052;8.518;2023-08-20T15:58:02;43.60;57.40
37342;DHT22;58643;49.052;8.518;2023-08-20T16:00:28;42.60;57.40
37342;DHT22;58643;49.052;8.518;2023-08-20T16:02:55;41.90;57.60
37342;DHT22;58643;49.052;8.518;2023-08-20T16:05:21;41.80;58.20
37342;DHT22;58643;49.052;8.518;2023-08-20T16:07:47;41.80;58.20
37342;DHT22;58643;49.052;8.518;2023-08-20T16:10:12;41.80;58.10
37342;DHT22;58643;49.052;8.518;2023-08-20T16:12:41;41.80;58.50
37342;DHT22;58643;49.052;8.518;2023-08-20T16:15:07;42.10;58.20
37342;DHT22;58643;49.052;8.518;2023-08-20T16:17:33;42.40;58.20
37342;DHT22;58643;49.052;8.518;2023-08-20T16:19:59;41.60;57.60
37342;DHT22;58643;49.052;8.518;2023-08-20T16:22:25;41.90;57.70
37342;DHT22;58643;49.052;8.518;2023-08-20T16:24:51;41.90;58.30
37342;DHT22;58643;49.052;8.518;2023-08-20T16:27:17;42.40;58.70
37342;DHT22;58643;49.052;8.518;2023-08-20T16:29:42;41.80;58.00
37342;DHT22;58643;49.052;8.518;2023-08-20T16:32:08;41.40;58.20
37342;DHT22;58643;49.052;8.518;2023-08-20T16:34:33;40.70;59.60
37342;DHT22;58643;49.052;8.518;2023-08-20T16:36:59;39.10;61.20
37342;DHT22;58643;49.052;8.518;2023-08-20T16:39:25;39.00;62.20
37342;DHT22;58643;49.052;8.518;2023-08-20T16:41:50;38.40;62.80
